createdAt,value
2019-03-17T00:00:48.559Z,2.73
2019-03-17T00:10:44.324Z,3.30
2019-03-17T00:13:32.849Z,2.60
2019-03-17T00:16:37.151Z,3.00
2019-03-17T00:19:15.281Z,2.50
2019-03-17T00:22:06.180Z,2.90
2019-03-17T00:24:54.721Z,2.83
2019-03-17T00:27:42.646Z,2.80
2019-03-17T00:30:30.960Z,3.00
2019-03-17T00:33:22.297Z,3.17
2019-03-17T00:36:25.682Z,3.10
2019-03-17T00:39:16.309Z,4.90
2019-03-17T00:45:14.025Z,2.80
2019-03-17T00:48:02.753Z,2.50
2019-03-17T00:50:51.111Z,2.37
2019-03-17T00:53:39.301Z,2.23
2019-03-17T00:56:27.685Z,2.07
2019-03-17T00:59:21.448Z,2.20
2019-03-17T01:02:44.951Z,2.00
2019-03-17T01:05:33.673Z,2.60
2019-03-17T01:08:29.519Z,1.97
2019-03-17T01:11:22.847Z,2.77
2019-03-17T01:14:10.724Z,1.60
2019-03-17T01:17:27.716Z,3.10
2019-03-17T01:20:29.860Z,1.60
2019-03-17T01:23:19.137Z,1.40
2019-03-17T01:26:20.971Z,1.97
2019-03-17T01:29:10.720Z,1.80
2019-03-17T01:31:59.290Z,1.70
2019-03-17T01:35:14.541Z,1.57
2019-03-17T01:38:02.575Z,1.93
2019-03-17T01:41:32.358Z,1.70
2019-03-17T01:44:30.726Z,1.30
2019-03-17T01:47:22.338Z,1.60
2019-03-17T01:50:15.234Z,2.03
2019-03-17T01:53:04.850Z,1.87
2019-03-17T01:56:15.289Z,1.50
2019-03-17T01:59:07.209Z,1.50
2019-03-17T02:01:55.041Z,1.40
2019-03-17T02:07:35.194Z,2.10
2019-03-17T02:13:30.295Z,1.50
2019-03-17T02:16:21.431Z,1.30
2019-03-17T02:19:09.575Z,2.00
2019-03-17T02:22:00.625Z,1.40
2019-03-17T02:25:00.027Z,1.70
2019-03-17T02:27:48.239Z,1.50
2019-03-17T02:30:59.822Z,2.93
2019-03-17T02:33:27.889Z,2.70
2019-03-17T02:39:45.609Z,1.37
2019-03-17T02:42:37.298Z,1.30
2019-03-17T02:45:37.238Z,1.87
2019-03-17T02:48:26.073Z,1.43
2019-03-17T02:51:26.824Z,1.63
2019-03-17T02:54:06.339Z,1.23
2019-03-17T02:57:01.527Z,1.30
2019-03-17T02:59:49.484Z,1.20
2019-03-17T03:02:42.100Z,1.30
2019-03-17T03:05:31.870Z,1.60
2019-03-17T03:08:26.630Z,1.20
2019-03-17T03:11:14.758Z,1.13
2019-03-17T03:14:05.383Z,1.20
2019-03-17T03:17:27.634Z,1.20
2019-03-17T03:20:16.181Z,1.17
2019-03-17T03:23:05.583Z,1.40
2019-03-17T03:25:55.772Z,1.10
2019-03-17T03:28:53.963Z,1.63
2019-03-17T03:31:44.027Z,2.07
2019-03-17T03:34:34.557Z,1.33
2019-03-17T03:37:32.250Z,2.33
2019-03-17T03:40:31.008Z,0.90
2019-03-17T03:43:22.995Z,1.30
2019-03-17T03:52:35.365Z,1.13
2019-03-17T03:55:26.346Z,1.50
2019-03-17T03:58:14.890Z,1.43
2019-03-17T04:01:14.048Z,1.13
2019-03-17T04:04:05.356Z,0.87
2019-03-17T04:06:55.853Z,1.23
2019-03-17T04:09:47.079Z,1.67
2019-03-17T04:12:39.445Z,1.10
2019-03-17T04:15:31.742Z,1.33
2019-03-17T04:18:23.249Z,1.53
2019-03-17T04:21:11.275Z,1.10
2019-03-17T04:24:00.201Z,1.73
2019-03-17T04:29:54.099Z,1.50
2019-03-17T04:32:43.969Z,2.00
2019-03-17T04:35:53.792Z,0.77
2019-03-17T04:38:43.994Z,1.20
2019-03-17T04:41:32.283Z,1.53
2019-03-17T04:44:23.931Z,2.00
2019-03-17T04:47:14.821Z,1.00
2019-03-17T04:53:21.619Z,0.70
2019-03-17T04:56:11.350Z,0.83
2019-03-17T04:58:59.800Z,0.70
2019-03-17T05:01:50.652Z,1.97
2019-03-17T05:04:45.273Z,1.07
2019-03-17T05:07:36.248Z,1.30
2019-03-17T05:10:24.821Z,1.50
2019-03-17T05:13:16.436Z,0.57
2019-03-17T05:16:16.638Z,2.30
2019-03-17T05:19:06.109Z,1.10
2019-03-17T05:22:14.810Z,1.80
2019-03-17T05:25:10.620Z,1.43
2019-03-17T05:28:04.084Z,1.03
2019-03-17T05:30:55.151Z,0.60
2019-03-17T05:33:47.060Z,1.00
2019-03-17T05:37:05.341Z,1.37
2019-03-17T05:39:45.057Z,0.70
2019-03-17T05:42:37.184Z,1.53
2019-03-17T05:45:35.448Z,2.13
2019-03-17T05:48:23.372Z,1.03
2019-03-17T05:51:33.860Z,1.13
2019-03-17T05:54:21.953Z,2.30
2019-03-17T06:00:22.751Z,0.73
2019-03-17T06:03:34.252Z,1.27
2019-03-17T06:06:40.794Z,0.97
2019-03-17T06:09:29.138Z,1.30
2019-03-17T06:12:31.291Z,1.40
2019-03-17T06:15:30.786Z,0.73
2019-03-17T06:18:17.586Z,0.73
2019-03-17T06:21:08.785Z,0.80
2019-03-17T06:24:00.993Z,0.77
2019-03-17T06:26:50.497Z,0.73
2019-03-17T06:33:08.273Z,2.17
2019-03-17T06:35:59.118Z,0.90
2019-03-17T06:38:46.410Z,0.80
2019-03-17T06:41:34.642Z,1.30
2019-03-17T06:44:24.517Z,2.73
2019-03-17T06:47:18.583Z,1.13
2019-03-17T06:50:07.847Z,1.63
2019-03-17T06:52:58.027Z,0.87
2019-03-17T06:55:47.798Z,1.37
2019-03-17T06:58:39.481Z,0.70
2019-03-17T07:04:59.585Z,2.67
2019-03-17T07:11:01.023Z,2.93
2019-03-17T07:13:49.981Z,0.80
2019-03-17T07:17:01.242Z,1.70
2019-03-17T07:23:28.159Z,1.23
2019-03-17T07:26:27.691Z,1.17
2019-03-17T07:29:17.726Z,3.27
2019-03-17T07:32:07.706Z,1.67
2019-03-17T07:38:15.695Z,1.13
2019-03-17T07:40:42.432Z,1.07
2019-03-17T07:43:35.487Z,0.53
2019-03-17T07:46:22.031Z,1.10
2019-03-17T07:49:09.909Z,0.90
2019-03-17T07:52:00.485Z,1.27
2019-03-17T07:54:48.638Z,1.40
2019-03-17T07:57:37.383Z,1.00
2019-03-17T08:00:31.834Z,1.07
2019-03-17T08:03:15.748Z,1.97
2019-03-17T08:06:05.153Z,1.60
2019-03-17T08:08:54.217Z,0.80
2019-03-17T08:11:42.328Z,1.30
2019-03-17T08:14:34.981Z,2.37
2019-03-17T08:17:26.389Z,1.50
2019-03-17T08:20:15.699Z,0.70
2019-03-17T08:23:04.402Z,1.03
2019-03-17T08:25:53.389Z,0.67
2019-03-17T08:28:41.289Z,0.43
2019-03-17T08:31:41.549Z,0.60
2019-03-17T08:34:29.422Z,0.30
2019-03-17T08:37:18.475Z,0.67
2019-03-17T08:40:06.717Z,0.57
2019-03-17T08:42:54.821Z,2.00
2019-03-17T08:45:45.743Z,1.43
2019-03-17T08:48:50.765Z,0.50
2019-03-17T08:51:42.199Z,0.30
2019-03-17T08:55:20.554Z,0.43
2019-03-17T08:58:26.491Z,0.30
2019-03-17T09:05:22.789Z,0.47
2019-03-17T09:08:12.045Z,1.27
2019-03-17T09:11:00.279Z,0.47
2019-03-17T09:13:48.512Z,0.60
2019-03-17T09:16:39.524Z,0.97
2019-03-17T09:20:10.628Z,0.53
2019-03-17T09:23:02.039Z,1.13
2019-03-17T09:25:50.788Z,0.60
2019-03-17T09:28:40.183Z,0.50
2019-03-17T09:34:23.886Z,2.50
2019-03-17T09:37:11.505Z,1.03
2019-03-17T09:40:01.535Z,0.50
2019-03-17T09:42:51.970Z,0.80
2019-03-17T09:48:56.968Z,1.17
2019-03-17T09:51:45.096Z,0.87
2019-03-17T09:54:54.625Z,0.93
2019-03-17T09:57:48.169Z,1.60
2019-03-17T10:03:31.279Z,0.90
2019-03-17T10:06:19.566Z,1.43
2019-03-17T10:09:20.698Z,0.80
2019-03-17T10:12:12.005Z,0.77
2019-03-17T10:15:00.135Z,1.13
2019-03-17T10:17:51.895Z,2.03
2019-03-17T10:20:55.744Z,1.70
2019-03-17T10:23:36.713Z,2.50
2019-03-17T10:26:25.564Z,1.33
2019-03-17T10:29:14.825Z,2.23
2019-03-17T10:32:04.931Z,2.50
2019-03-17T10:34:53.342Z,3.73
2019-03-17T10:37:46.526Z,2.20
2019-03-17T10:40:36.349Z,2.57
2019-03-17T10:46:54.956Z,2.03
2019-03-17T10:49:48.554Z,3.07
2019-03-17T10:52:42.828Z,2.43
2019-03-17T10:55:30.860Z,2.80
2019-03-17T10:58:18.996Z,2.63
2019-03-17T11:01:08.627Z,1.70
2019-03-17T11:04:02.427Z,2.63
2019-03-17T11:06:50.460Z,2.20
2019-03-17T11:09:40.714Z,1.60
2019-03-17T11:12:46.170Z,1.60
2019-03-17T11:15:35.480Z,1.10
2019-03-17T11:18:50.373Z,1.67
2019-03-17T11:21:40.246Z,2.47
2019-03-17T11:24:28.754Z,1.77
2019-03-17T11:30:49.166Z,1.33
2019-03-17T11:33:37.499Z,1.83
2019-03-17T11:36:32.076Z,3.03
2019-03-17T11:39:36.852Z,1.67
2019-03-17T11:42:16.297Z,1.17
2019-03-17T11:45:12.206Z,2.27
2019-03-17T11:51:08.088Z,1.20
2019-03-17T11:54:02.642Z,0.70
2019-03-17T11:56:53.820Z,1.40
2019-03-17T11:59:52.618Z,1.03
2019-03-17T12:02:40.856Z,1.30
2019-03-17T12:05:31.442Z,0.90
2019-03-17T12:08:26.026Z,0.80
2019-03-17T12:11:14.770Z,1.03
2019-03-17T12:14:09.954Z,2.00
2019-03-17T12:17:38.084Z,0.90
2019-03-17T12:20:34.841Z,0.60
2019-03-17T12:23:23.590Z,2.07
2019-03-17T12:26:15.099Z,1.23
2019-03-17T12:38:42.850Z,2.83
2019-03-17T12:41:31.098Z,1.17
2019-03-17T12:44:20.357Z,1.10
2019-03-17T12:47:08.580Z,1.90
2019-03-17T12:50:08.081Z,1.43
2019-03-17T12:53:13.702Z,1.03
2019-03-17T12:56:04.887Z,1.30
2019-03-17T12:59:02.154Z,1.90
2019-03-17T13:01:51.602Z,1.37
2019-03-17T13:04:39.648Z,1.77
2019-03-17T13:07:28.174Z,2.00
2019-03-17T13:10:19.213Z,2.30
2019-03-17T13:13:12.927Z,1.70
2019-03-17T13:16:05.420Z,1.20
2019-03-17T13:18:53.203Z,1.93
2019-03-17T13:21:45.232Z,1.17
2019-03-17T13:24:37.468Z,1.40
2019-03-17T13:27:37.957Z,0.90
2019-03-17T13:31:07.143Z,1.30
2019-03-17T13:34:05.205Z,1.30
2019-03-17T13:39:50.481Z,1.30
2019-03-17T13:42:38.070Z,0.97
2019-03-17T13:46:06.451Z,0.80
2019-03-17T13:49:30.611Z,0.97
2019-03-17T13:52:20.802Z,1.00
2019-03-17T14:04:35.851Z,2.63
2019-03-17T14:07:23.271Z,1.20
2019-03-17T14:10:14.475Z,1.33
2019-03-17T14:13:09.025Z,1.93
2019-03-17T14:16:03.031Z,1.80
2019-03-17T14:18:58.621Z,1.30
2019-03-17T14:21:50.136Z,2.03
2019-03-17T14:24:41.336Z,1.10
2019-03-17T14:27:28.963Z,1.50
2019-03-17T14:30:17.278Z,1.13
2019-03-17T14:43:08.886Z,1.60
2019-03-17T14:46:15.448Z,2.50
2019-03-17T14:49:26.295Z,1.50
2019-03-17T14:52:13.285Z,2.57
2019-03-17T14:55:03.056Z,2.10
2019-03-17T14:57:54.247Z,1.40
2019-03-17T15:03:46.410Z,1.97
2019-03-17T15:06:58.714Z,2.43
2019-03-17T15:16:02.670Z,2.90
2019-03-17T15:18:50.007Z,1.90
2019-03-17T15:21:40.572Z,1.83
2019-03-17T15:24:29.147Z,1.50
2019-03-17T15:27:17.684Z,2.53
2019-03-17T15:30:06.538Z,2.43
2019-03-17T15:39:25.454Z,6.57
2019-03-17T15:42:12.654Z,3.40
2019-03-17T15:45:00.112Z,2.37
2019-03-17T15:47:47.519Z,2.90
2019-03-17T15:50:35.000Z,3.20
2019-03-17T15:53:23.058Z,2.43
2019-03-17T15:56:11.092Z,2.33
2019-03-17T15:58:58.585Z,2.17
2019-03-17T16:01:46.287Z,2.30
2019-03-17T16:04:34.271Z,3.47
2019-03-17T16:07:22.168Z,3.23
2019-03-17T16:10:10.248Z,3.70
2019-03-17T16:13:25.600Z,3.70
2019-03-17T16:16:14.760Z,4.70
2019-03-17T16:19:36.458Z,3.27
2019-03-17T16:22:47.717Z,4.60
2019-03-17T16:28:39.438Z,3.00
2019-03-17T16:41:53.507Z,5.20
2019-03-17T16:44:48.439Z,4.40
2019-03-17T16:47:40.355Z,5.20
2019-03-17T16:50:37.065Z,3.73
2019-03-17T16:53:27.164Z,4.40
2019-03-17T16:56:21.844Z,5.97
2019-03-17T17:02:41.997Z,4.70
2019-03-17T17:05:36.367Z,10.77
2019-03-17T17:08:44.787Z,4.23
2019-03-17T17:11:32.569Z,3.40
2019-03-17T17:17:32.623Z,4.30
2019-03-17T17:20:34.306Z,6.40
2019-03-17T17:23:29.152Z,4.63
2019-03-17T17:26:50.910Z,3.27
2019-03-17T17:29:25.782Z,3.80
2019-03-17T17:36:12.662Z,3.17
2019-03-17T17:39:01.001Z,3.73
2019-03-17T17:41:48.926Z,4.67
2019-03-17T17:44:57.121Z,3.27
2019-03-17T17:47:48.017Z,4.90
2019-03-17T17:50:36.455Z,2.90
2019-03-17T17:53:26.324Z,3.20
2019-03-17T17:56:39.741Z,4.17
2019-03-17T17:59:30.088Z,3.77
2019-03-17T18:02:21.538Z,6.30
2019-03-17T18:05:09.578Z,2.60
2019-03-17T18:11:05.378Z,3.30
2019-03-17T18:13:57.826Z,3.10
2019-03-17T18:16:46.968Z,3.43
2019-03-17T18:19:35.615Z,3.10
2019-03-17T18:22:23.952Z,3.73
2019-03-17T18:25:12.497Z,3.93
2019-03-17T18:28:00.835Z,3.73
2019-03-17T18:30:48.751Z,3.33
2019-03-17T18:33:37.207Z,4.37
2019-03-17T18:36:26.120Z,4.17
2019-03-17T18:39:14.666Z,3.63
2019-03-17T18:42:42.438Z,3.87
2019-03-17T18:45:30.828Z,3.77
2019-03-17T18:48:20.137Z,3.17
2019-03-17T18:51:07.658Z,3.17
2019-03-17T18:54:14.824Z,3.83
2019-03-17T18:57:04.179Z,3.83
2019-03-17T19:00:09.102Z,2.87
2019-03-17T19:03:07.260Z,5.07
2019-03-17T19:09:08.205Z,4.00
2019-03-17T19:11:56.619Z,3.70
2019-03-17T19:14:45.280Z,2.50
2019-03-17T19:17:37.749Z,2.33
2019-03-17T19:24:08.521Z,3.53
2019-03-17T19:27:03.941Z,3.20
2019-03-17T19:29:54.409Z,2.63
2019-03-17T19:33:05.684Z,5.47
2019-03-17T19:39:13.462Z,2.93
2019-03-17T19:42:04.353Z,3.17
2019-03-17T19:44:52.200Z,2.57
2019-03-17T19:47:55.737Z,2.93
2019-03-17T19:51:03.719Z,4.03
2019-03-17T19:54:25.152Z,3.33
2019-03-17T20:00:51.353Z,2.87
2019-03-17T20:03:46.731Z,3.93
2019-03-17T20:07:12.076Z,2.83
2019-03-17T20:09:39.471Z,2.67
2019-03-17T20:12:28.036Z,3.47
2019-03-17T20:15:16.559Z,3.40
2019-03-17T20:18:04.704Z,4.10
2019-03-17T20:20:54.762Z,3.17
2019-03-17T20:23:50.574Z,2.67
2019-03-17T20:26:45.166Z,2.90
2019-03-17T20:29:38.106Z,3.83
2019-03-17T20:32:30.434Z,3.07
2019-03-17T20:35:42.841Z,2.97
2019-03-17T20:38:34.097Z,4.23
2019-03-17T20:41:32.516Z,4.13
2019-03-17T20:44:20.570Z,4.77
2019-03-17T20:47:09.090Z,3.87
2019-03-17T20:50:25.979Z,3.07
2019-03-17T20:53:40.494Z,3.17
2019-03-17T20:56:28.850Z,3.80
2019-03-17T21:02:52.806Z,2.67
2019-03-17T21:05:41.448Z,3.60
2019-03-17T21:08:35.863Z,3.20
2019-03-17T21:14:49.250Z,3.67
2019-03-17T21:18:20.462Z,3.27
2019-03-17T21:21:21.034Z,3.67
2019-03-17T21:24:39.508Z,2.40
2019-03-17T21:27:36.031Z,3.77
2019-03-17T21:30:27.727Z,2.97
2019-03-17T21:33:15.880Z,2.50
2019-03-17T21:36:03.704Z,3.03
2019-03-17T21:42:00.337Z,3.83
2019-03-17T21:44:51.109Z,3.07
2019-03-17T21:48:02.701Z,1.80
2019-03-17T21:50:32.308Z,2.67
2019-03-17T21:53:26.380Z,2.33
2019-03-17T21:56:14.081Z,3.53
2019-03-17T21:59:02.708Z,4.90
2019-03-17T22:02:11.925Z,4.17
2019-03-17T22:04:53.133Z,4.50
2019-03-17T22:07:51.238Z,2.30
2019-03-17T22:17:33.408Z,3.17
2019-03-17T22:20:26.014Z,4.33
2019-03-17T22:23:14.552Z,3.50
2019-03-17T22:26:02.789Z,3.43
2019-03-17T22:28:51.027Z,3.47
2019-03-17T22:35:03.322Z,2.87
2019-03-17T22:37:56.572Z,4.50
2019-03-17T22:43:54.628Z,3.30
2019-03-17T22:50:13.454Z,3.83
2019-03-17T22:53:05.595Z,2.93
2019-03-17T22:56:03.959Z,3.00
2019-03-17T22:59:07.845Z,4.23
2019-03-17T23:02:10.523Z,2.13
2019-03-17T23:05:04.587Z,4.10
2019-03-17T23:07:52.111Z,3.77
2019-03-17T23:11:03.776Z,2.63
2019-03-17T23:13:54.474Z,3.47
2019-03-17T23:17:05.976Z,4.40
2019-03-17T23:19:32.450Z,2.30
2019-03-17T23:22:23.988Z,3.50
2019-03-17T23:25:24.400Z,3.43
2019-03-17T23:28:41.291Z,3.03
2019-03-17T23:31:23.896Z,5.67
2019-03-17T23:34:14.181Z,3.20
2019-03-17T23:37:40.179Z,2.30
2019-03-17T23:40:28.523Z,3.87
2019-03-17T23:43:18.492Z,4.93
2019-03-17T23:49:24.330Z,3.40
2019-03-17T23:52:12.029Z,4.73
2019-03-17T23:55:00.498Z,3.23
2019-03-17T23:57:52.421Z,2.20
